地図

経路データ

SID SEASON NUMBER BASIN SUBBASIN NAME ISO_TIME NATURE LAT LON WMO_WIND WMO_PRES WMO_AGENCY TRACK_TYPE DIST2LAND LANDFALL IFLAG USA_AGENCY USA_ATCF_ID USA_LAT USA_LON USA_RECORD USA_STATUS USA_WIND USA_PRES USA_SSHS USA_R34_NE USA_R34_SE USA_R34_SW USA_R34_NW USA_R50_NE USA_R50_SE USA_R50_SW USA_R50_NW USA_R64_NE USA_R64_SE USA_R64_SW USA_R64_NW USA_POCI USA_ROCI USA_RMW USA_EYE TOKYO_LAT TOKYO_LON TOKYO_GRADE TOKYO_WIND TOKYO_PRES TOKYO_R50_DIR TOKYO_R50_LONG TOKYO_R50_SHORT TOKYO_R30_DIR TOKYO_R30_LONG TOKYO_R30_SHORT TOKYO_LAND CMA_LAT CMA_LON CMA_CAT CMA_WIND CMA_PRES HKO_LAT HKO_LON HKO_CAT HKO_WIND HKO_PRES NEWDELHI_LAT NEWDELHI_LON NEWDELHI_GRADE NEWDELHI_WIND NEWDELHI_PRES NEWDELHI_CI NEWDELHI_DP NEWDELHI_POCI REUNION_LAT REUNION_LON REUNION_TYPE REUNION_WIND REUNION_PRES REUNION_TNUM REUNION_CI REUNION_RMW REUNION_R34_NE REUNION_R34_SE REUNION_R34_SW REUNION_R34_NW REUNION_R50_NE REUNION_R50_SE REUNION_R50_SW REUNION_R50_NW REUNION_R64_NE REUNION_R64_SE REUNION_R64_SW REUNION_R64_NW BOM_LAT BOM_LON BOM_TYPE BOM_WIND BOM_PRES BOM_TNUM BOM_CI BOM_RMW BOM_R34_NE BOM_R34_SE BOM_R34_SW BOM_R34_NW BOM_R50_NE BOM_R50_SE BOM_R50_SW BOM_R50_NW BOM_R64_NE BOM_R64_SE BOM_R64_SW BOM_R64_NW BOM_ROCI BOM_POCI BOM_EYE BOM_POS_METHOD BOM_PRES_METHOD NADI_LAT NADI_LON NADI_CAT NADI_WIND NADI_PRES WELLINGTON_LAT WELLINGTON_LON WELLINGTON_WIND WELLINGTON_PRES DS824_LAT DS824_LON DS824_STAGE DS824_WIND DS824_PRES TD9636_LAT TD9636_LON TD9636_STAGE TD9636_WIND TD9636_PRES TD9635_LAT TD9635_LON TD9635_WIND TD9635_PRES TD9635_ROCI NEUMANN_LAT NEUMANN_LON NEUMANN_CLASS NEUMANN_WIND NEUMANN_PRES MLC_LAT MLC_LON MLC_CLASS MLC_WIND MLC_PRES USA_GUST BOM_GUST BOM_GUST_PER REUNION_GUST REUNION_GUST_PER USA_SEAHGT USA_SEARAD_NE USA_SEARAD_SE USA_SEARAD_SW USA_SEARAD_NW STORM_SPEED STORM_DIR
2000150N11117 2000 35 WP MM NOT_NAMED 2000-05-29 00:00:00 TS 10.5000 116.600 main 196 196 O_____________ jtwc_wp WP042000 10.5000 116.600 TD 20 -1 12 280
2000150N11117 2000 35 WP MM NOT_NAMED 2000-05-29 03:00:00 TS 10.6002 116.000 main 250 250 P_____________ WP042000 10.6002 116.000 TD 20 -1 12 280
2000150N11117 2000 35 WP MM NOT_NAMED 2000-05-29 06:00:00 TS 10.7000 115.400 main 306 306 O_____________ jtwc_wp WP042000 10.7000 115.400 TD 20 -1 12 280
2000150N11117 2000 35 WP MM NOT_NAMED 2000-05-29 09:00:00 TS 10.7999 114.800 main 364 364 P_____________ WP042000 10.7999 114.800 TD 20 -1 12 280
2000150N11117 2000 35 WP MM NOT_NAMED 2000-05-29 12:00:00 TS 10.9000 114.200 main 425 425 O_____________ jtwc_wp WP042000 10.9000 114.200 TD 20 -1 12 279
2000150N11117 2000 35 WP MM NOT_NAMED 2000-05-29 15:00:00 TS 10.9926 113.555 main 479 413 P_____________ WP042000 10.9926 113.555 TD 20 -1 12 280
2000150N11117 2000 35 WP MM NOT_NAMED 2000-05-29 18:00:00 TS 11.1000 113.000 main 413 378 O_____________ jtwc_wp WP042000 11.1000 113.000 TD 20 -1 9 286
2000150N11117 2000 35 WP MM NOT_NAMED 2000-05-29 21:00:00 TS 11.2423 112.655 main 378 342 P_____________ WP042000 11.2423 112.655 TD 20 -1 7 297
2000150N11117 2000 35 WP MM NOT_NAMED 2000-05-30 00:00:00 TS 11.4000 112.400 main 342 308 O_____________ jtwc_wp WP042000 11.4000 112.400 TD 20 -1 6 299
2000150N11117 2000 35 WP MM NOT_NAMED 2000-05-30 03:00:00 TS 11.5500 112.092 main 308 269 P_____________ WP042000 11.5500 112.092 TD 20 -1 7 297
2000150N11117 2000 35 WP MM NOT_NAMED 2000-05-30 06:00:00 TS 11.7000 111.800 main 269 235 O_____________ jtwc_wp WP042000 11.7000 111.800 TD 20 -1 6 296
2000150N11117 2000 35 WP MM NOT_NAMED 2000-05-30 09:00:00 TS 11.8275 111.512 main 235 206 P_____________ WP042000 11.8275 111.512 TD 22 -1 6 302
2000150N11117 2000 35 WP MM NOT_NAMED 2000-05-30 12:00:00 TS 12.0000 111.300 main 206 190 O_____________ jtwc_wp WP042000 12.0000 111.300 TD 25 -1 5 327
2000150N11117 2000 35 WP MM NOT_NAMED 2000-05-30 15:00:00 TS 12.2625 111.220 main 187 173 P_____________ WP042000 12.2625 111.220 TD 25 -1 6 345
2000150N11117 2000 35 WP MM NOT_NAMED 2000-05-30 18:00:00 TS 12.6000 111.140 main 173 173 O_O___________ jtwc_wp WP042000 12.6000 111.200 TD 25 -1 12.6000 110.900 1 23 1003 7 353
2000150N11117 2000 35 WP MM NOT_NAMED 2000-05-30 21:00:00 TS 12.9842 111.130 main 173 173 P_P___________ WP042000 12.9850 111.172 TD 25 -1 12.9825 111.045 1 26 1002 8 357
2000150N11117 2000 35 WP MM NOT_NAMED 2000-05-31 00:00:00 TS 13.4000 111.100 main 182 180 O_O___________ jtwc_wp WP042000 13.4000 111.100 TD 25 -1 13.4000 111.100 1 29 1002 9 350
2000150N11117 2000 35 WP MM NOT_NAMED 2000-05-31 03:00:00 TS 13.8400 110.974 main 183 163 P_P___________ WP042000 13.8149 110.945 TD 25 -1 13.8650 111.003 1 29 1002 9 338
2000150N11117 2000 35 WP MM NOT_NAMED 2000-05-31 06:00:00 TS 14.2500 110.750 main 167 145 O_O___________ jtwc_wp WP042000 14.2000 110.700 TD 25 -1 14.3000 110.800 1 29 1002 9 326
2000150N11117 2000 35 WP MM NOT_NAMED 2000-05-31 09:00:00 TS 14.5763 110.465 main 150 118 P_P___________ WP042000 14.5151 110.365 TD 27 -1 14.6375 110.565 1 29 1001 8 316
2000150N11117 2000 35 WP MM NOT_NAMED 2000-05-31 12:00:00 TS 14.8500 110.150 main 120 92 O_O___________ jtwc_wp WP042000 14.8000 110.000 TD 30 -1 14.9000 110.300 1 29 1001 8 312
2000150N11117 2000 35 WP MM NOT_NAMED 2000-05-31 15:00:00 TS 15.0849 109.882 main 96 75 P_P___________ WP042000 15.0924 109.692 TD 30 -1 15.0774 110.072 1 29 1001 7 313
2000150N11117 2000 35 WP MM NOT_NAMED 2000-05-31 18:00:00 TS 15.3500 109.600 main 78 62 O_O___________ jtwc_wp WP042000 15.4000 109.400 TD 30 -1 15.3000 109.800 1 29 1001 9 318
2000150N11117 2000 35 WP MM NOT_NAMED 2000-05-31 21:00:00 TS 15.7387 109.265 main 69 63 P_P___________ WP042000 15.7349 109.107 TD 27 -1 15.7425 109.423 1 29 1001 11 320
2000150N11117 2000 35 WP MM NOT_NAMED 2000-06-01 00:00:00 TS 16.1500 108.900 main 67 54 O_O___________ jtwc_wp WP042000 16.1000 108.800 TD 25 -1 16.2000 109.000 1 29 1001 10 316
2000150N11117 2000 35 WP MM NOT_NAMED 2000-06-01 03:00:00 TS 16.4825 108.521 main 54 49 P_P___________ WP042000 16.5075 108.450 TD 25 -1 16.4575 108.592 1 26 1002 10 312
2000150N11117 2000 35 WP MM NOT_NAMED 2000-06-01 06:00:00 TS 16.7857 108.157 main 61 54 O_O___________ jtwc_wp WP042000 16.9000 108.100 TD 25 -1 16.7000 108.200 1 23 1003 9 314
2000150N11117 2000 35 WP MM NOT_NAMED 2000-06-01 09:00:00 TS 17.0904 107.873 main 64 59 P_P___________ WP042000 17.2225 107.788 TD 25 -1 17.0243 107.916 1 23 1003 10 319
2000150N11117 2000 35 WP MM NOT_NAMED 2000-06-01 12:00:00 TS 17.5000 107.500 main 61 38 O_O___________ jtwc_wp WP042000 17.5000 107.500 TD 25 -1 17.5000 107.500 1 23 1003 15 316
2000150N11117 2000 35 WP MM NOT_NAMED 2000-06-01 15:00:00 TS 18.1890 106.755 main 43 23 __P___________ WP042000 TD -1 18.1890 106.755 1 21 1004 22 313
2000150N11117 2000 35 WP MM NOT_NAMED 2000-06-01 18:00:00 TS 19.0000 105.800 main 15 __O___________ 19.0000 105.800 0 19 1005 24 312

デジタル台風データ・検索

IBTrACS Databaseについて

本データベースは、米国NOAAが公開する1842年以降の世界の熱帯低気圧のベストトラックデータアーカイブInternational Best Track Archive for Climate Stewardship (IBTrACS)を、ウェブで閲覧しやすい形式に変換したものです。

最終更新日:2021-10-08